Time;durP1;ratioP1;P1;durP2;ratioP2;P2;SDS_P1;SDS_P2;PMS_P1;PMS_P2;Temp;Humidity;BMP_temperature;BMP_pressure;BME280_temperature;BME280_humidity;BME280_pressure;Samples;Min_cycle;Max_cycle;Signal;HPM_P1;HPM_P2
2022/01/12 00:00:19;;;;;;;35.60;18.98;;;-4.90;98.00;;;;;;5028614;28;20039;-67
2022/01/12 00:02:45;;;;;;;33.10;17.65;;;-5.10;98.00;;;;;;5027684;28;20096;-66
2022/01/12 00:05:11;;;;;;;30.48;17.45;;;-5.20;98.00;;;;;;5028342;28;20137;-67
2022/01/12 00:07:37;;;;;;;34.95;19.67;;;-5.50;98.00;;;;;;5029584;28;20041;-67
2022/01/12 00:10:04;;;;;;;33.72;19.05;;;-5.60;98.00;;;;;;5030027;28;20022;-68
2022/01/12 00:12:30;;;;;;;43.03;22.85;;;-5.60;98.00;;;;;;5011510;28;20072;-66
2022/01/12 00:14:55;;;;;;;29.77;17.13;;;-5.60;98.00;;;;;;5029582;28;20034;-68
2022/01/12 00:17:21;;;;;;;34.55;18.48;;;-5.50;98.00;;;;;;5028851;28;20121;-67
2022/01/12 00:19:47;;;;;;;29.90;17.88;;;-5.50;98.00;;;;;;5028320;28;22038;-68
2022/01/12 00:22:16;;;;;;;25.48;15.50;;;-5.40;97.90;;;;;;5029261;28;20045;-68
2022/01/12 00:35:35;;;;;;;25.25;15.27;;;-5.60;98.00;;;;;;5036098;28;20358;-68
2022/01/12 00:38:00;;;;;;;22.67;14.32;;;-5.50;97.10;;;;;;5036739;28;20032;-67
2022/01/12 00:40:26;;;;;;;27.38;17.10;;;-5.40;97.60;;;;;;5028210;28;20022;-67
2022/01/12 00:42:52;;;;;;;26.63;15.57;;;-5.40;97.70;;;;;;5014165;28;20017;-67
2022/01/12 00:45:20;;;;;;;43.72;24.02;;;-5.30;97.80;;;;;;5036519;28;20084;-67
2022/01/12 00:47:46;;;;;;;33.33;18.08;;;-5.40;97.90;;;;;;5035813;28;20022;-67
2022/01/12 00:50:19;;;;;;;31.08;17.77;;;-5.40;97.50;;;;;;5035017;28;20064;-67
2022/01/12 00:52:44;;;;;;;29.23;16.30;;;-5.50;97.80;;;;;;5034468;28;20025;-67
2022/01/12 00:55:10;;;;;;;32.22;18.42;;;-5.50;97.80;;;;;;5020107;28;20045;-68
2022/01/12 00:57:36;;;;;;;36.97;20.55;;;-5.40;96.60;;;;;;5021623;28;20034;-69
2022/01/12 01:00:03;;;;;;;35.97;20.80;;;-5.10;96.40;;;;;;5019531;28;20037;-67
2022/01/12 01:02:32;;;;;;;33.92;18.58;;;-4.90;96.20;;;;;;5023590;28;20041;-69
2022/01/12 01:04:58;;;;;;;29.90;16.48;;;-4.70;96.30;;;;;;5030569;28;20025;-68
2022/01/12 01:07:23;;;;;;;25.92;15.68;;;-4.50;96.30;;;;;;5035603;28;20499;-69
2022/01/12 01:10:00;;;;;;;30.30;17.80;;;-4.30;96.60;;;;;;5037688;28;20033;-68
2022/01/12 01:12:26;;;;;;;30.77;19.63;;;-4.10;96.60;;;;;;5037340;28;20033;-68
2022/01/12 01:15:06;;;;;;;28.98;17.40;;;-3.80;96.60;;;;;;5037309;28;20068;-69
2022/01/12 01:25:51;;;;;;;29.52;17.90;;;-3.40;98.00;;;;;;5037687;28;20072;-69
2022/01/12 01:28:17;;;;;;;30.00;17.75;;;-3.30;98.00;;;;;;5037472;28;20109;-69
2022/01/12 01:30:45;;;;;;;23.52;15.15;;;-3.20;98.00;;;;;;5037018;28;20033;-69
2022/01/12 01:33:15;;;;;;;24.95;17.00;;;-3.10;98.00;;;;;;5031919;28;20406;-69
2022/01/12 01:35:44;;;;;;;28.52;17.63;;;-3.00;98.00;;;;;;5034104;28;20030;-69
2022/01/12 01:38:10;;;;;;;23.02;15.77;;;-2.90;98.00;;;;;;5036755;28;20017;-69
2022/01/12 01:40:41;;;;;;;21.50;14.13;;;-2.80;98.00;;;;;;5037437;28;20442;-68
2022/01/12 01:43:26;;;;;;;24.63;16.42;;;-2.70;98.00;;;;;;5036990;28;20123;-68
2022/01/12 01:54:04;;;;;;;25.10;16.60;;;-2.40;98.00;;;;;;5037092;28;20091;-69
2022/01/12 01:56:31;;;;;;;21.48;15.15;;;-2.40;98.00;;;;;;5037044;28;20033;-69
2022/01/12 01:58:57;;;;;;;23.70;16.25;;;-2.40;98.00;;;;;;5036834;28;20100;-67
2022/01/12 02:01:23;;;;;;;23.55;15.30;;;-2.30;98.00;;;;;;5028631;28;20087;-69
2022/01/12 02:03:49;;;;;;;21.75;13.35;;;-2.30;98.00;;;;;;5035159;28;20091;-69
2022/01/12 02:06:16;;;;;;;18.60;13.25;;;-2.30;98.00;;;;;;5035956;28;20029;-69
2022/01/12 02:08:41;;;;;;;20.30;12.43;;;-2.30;98.00;;;;;;5035486;28;20025;-69
2022/01/12 02:11:07;;;;;;;18.50;12.57;;;-2.20;98.00;;;;;;5019175;28;20043;-68
2022/01/12 02:13:33;;;;;;;20.27;13.15;;;-2.20;98.00;;;;;;5036283;28;20069;-69
2022/01/12 02:15:59;;;;;;;19.42;13.18;;;-2.20;98.00;;;;;;5036475;28;20033;-69
2022/01/12 02:35:18;;;;;;;23.52;13.88;;;-2.20;98.00;;;;;;5028429;28;20029;-68
2022/01/12 02:40:31;;;;;;;21.60;12.82;;;-2.20;98.00;;;;;;5027013;28;20044;-68
2022/01/12 02:43:08;;;;;;;21.40;13.90;;;-2.20;98.00;;;;;;5035002;28;20361;-69
2022/01/12 02:53:40;;;;;;;20.73;14.00;;;-2.30;98.00;;;;;;5031506;28;20057;-68
2022/01/12 02:56:16;;;;;;;22.52;14.18;;;-2.30;98.00;;;;;;5026632;28;20021;-67
2022/01/12 02:58:44;;;;;;;22.95;14.30;;;-2.30;98.00;;;;;;5035560;28;20426;-67
2022/01/12 03:04:02;;;;;;;22.08;13.82;;;-2.30;98.00;;;;;;5034705;28;20036;-67
2022/01/12 03:06:36;;;;;;;22.25;13.80;;;-2.30;98.00;;;;;;5035237;28;20048;-69
2022/01/12 03:09:04;;;;;;;22.90;14.43;;;-2.30;98.00;;;;;;5034799;28;20044;-68
2022/01/12 03:11:32;;;;;;;21.75;13.50;;;-2.30;98.00;;;;;;5035019;28;20035;-69
2022/01/12 03:13:58;;;;;;;21.77;13.07;;;-2.30;98.00;;;;;;5034688;28;20029;-69
2022/01/12 03:16:26;;;;;;;22.05;13.57;;;-2.30;98.00;;;;;;5033051;28;20083;-68
2022/01/12 03:18:59;;;;;;;25.67;13.73;;;-2.30;98.00;;;;;;5032969;28;20369;-69
2022/01/12 03:21:30;;;;;;;24.83;13.73;;;-2.30;98.00;;;;;;5017711;28;20343;-68
2022/01/12 03:24:00;;;;;;;22.90;13.77;;;-2.30;98.00;;;;;;5035257;28;20020;-69
2022/01/12 03:26:29;;;;;;;21.58;12.75;;;-2.30;98.00;;;;;;5035516;28;20419;-68
2022/01/12 03:28:56;;;;;;;22.08;13.82;;;-2.30;98.00;;;;;;5034840;28;20028;-67
2022/01/12 03:31:35;;;;;;;20.48;12.35;;;-2.30;98.00;;;;;;5034923;28;20033;-68
2022/01/12 03:34:08;;;;;;;20.85;12.30;;;-2.30;98.00;;;;;;5030363;28;20037;-69
2022/01/12 03:39:05;;;;;;;18.83;12.43;;;-2.30;98.00;;;;;;5034742;28;20553;-69
2022/01/12 03:41:35;;;;;;;16.52;11.23;;;-2.30;98.00;;;;;;5029610;28;20029;-68
2022/01/12 03:44:06;;;;;;;19.05;11.88;;;-2.30;98.00;;;;;;5031326;28;20314;-69
2022/01/12 03:46:47;;;;;;;18.42;12.02;;;-2.30;98.00;;;;;;5034010;28;20017;-69
2022/01/12 03:49:16;;;;;;;16.08;11.35;;;-2.30;98.00;;;;;;5014952;28;20445;-68
2022/01/12 03:51:45;;;;;;;18.45;11.57;;;-2.30;98.00;;;;;;5034708;28;20021;-69
2022/01/12 03:54:10;;;;;;;19.85;11.93;;;-2.30;98.00;;;;;;5034312;28;20026;-68
2022/01/12 03:56:39;;;;;;;21.55;12.27;;;-2.40;98.00;;;;;;5034360;28;20060;-68
2022/01/12 03:59:05;;;;;;;20.40;12.40;;;-2.40;98.00;;;;;;5038013;28;20029;-68
2022/01/12 04:01:36;;;;;;;18.27;11.80;;;-2.30;98.00;;;;;;5039251;28;20132;-69
2022/01/12 04:04:07;;;;;;;19.15;12.07;;;-2.30;98.00;;;;;;5037485;28;20017;-68
2022/01/12 04:09:25;;;;;;;17.80;11.60;;;-2.30;98.00;;;;;;5013896;28;20029;-69
2022/01/12 04:11:51;;;;;;;19.00;11.85;;;-2.30;98.00;;;;;;5021132;28;20084;-69
2022/01/12 04:14:17;;;;;;;20.27;12.10;;;-2.30;98.00;;;;;;5037457;28;20029;-69
2022/01/12 04:16:43;;;;;;;19.70;12.30;;;-2.40;98.00;;;;;;5038345;28;20035;-69
2022/01/12 04:19:08;;;;;;;20.45;12.80;;;-2.40;98.00;;;;;;5037388;28;20101;-69
2022/01/12 04:21:41;;;;;;;33.50;18.60;;;-2.40;98.00;;;;;;5038599;28;20052;-69
2022/01/12 04:24:07;;;;;;;27.40;16.88;;;-2.40;98.00;;;;;;5038410;28;20022;-69
2022/01/12 04:26:33;;;;;;;31.08;15.50;;;-2.40;98.00;;;;;;5038432;28;20056;-69
2022/01/12 04:28:59;;;;;;;90.35;40.50;;;-2.40;98.00;;;;;;5037489;28;20029;-70
2022/01/12 04:31:24;;;;;;;20.55;13.70;;;-2.40;98.00;;;;;;5037490;28;20060;-69
2022/01/12 04:33:51;;;;;;;22.25;14.23;;;-2.50;98.00;;;;;;5036919;28;20373;-68
2022/01/12 04:36:17;;;;;;;63.45;31.17;;;-2.50;98.00;;;;;;5038057;28;20052;-69
2022/01/12 04:38:44;;;;;;;50.55;25.92;;;-2.50;98.00;;;;;;5037617;28;20033;-69
2022/01/12 04:41:11;;;;;;;126.68;58.28;;;-2.50;98.00;;;;;;5037411;28;20053;-69
2022/01/12 04:43:43;;;;;;;39.17;22.13;;;-2.40;98.00;;;;;;5037259;28;20327;-69
2022/01/12 04:46:23;;;;;;;37.95;20.42;;;-2.40;98.00;;;;;;5034233;28;20434;-69
2022/01/12 04:49:07;;;;;;;20.83;12.77;;;-2.40;98.00;;;;;;5024165;28;20029;-69
2022/01/12 04:51:34;;;;;;;65.75;33.80;;;-2.50;98.00;;;;;;5037544;28;20036;-69
2022/01/12 04:53:59;;;;;;;69.43;33.17;;;-2.50;98.00;;;;;;5037291;28;20061;-69
2022/01/12 04:56:28;;;;;;;181.55;81.35;;;-2.60;98.00;;;;;;5037921;28;20171;-68
2022/01/12 04:58:54;;;;;;;124.82;58.10;;;-2.60;98.00;;;;;;5038318;28;20423;-69
2022/01/12 05:01:26;;;;;;;69.20;36.28;;;-2.60;98.00;;;;;;5032813;28;20030;-69
2022/01/12 05:07:22;;;;;;;20.98;13.00;;;-2.70;98.00;;;;;;4997435;28;20034;-69
2022/01/12 05:09:50;;;;;;;22.60;13.80;;;-2.60;98.00;;;;;;5033289;28;20333;-69
2022/01/12 05:15:10;;;;;;;20.10;12.90;;;-2.60;98.00;;;;;;5037712;28;20049;-69
2022/01/12 05:17:36;;;;;;;20.13;13.25;;;-2.60;98.00;;;;;;5034319;28;20116;-69
2022/01/12 05:20:02;;;;;;;21.73;13.45;;;-2.70;98.00;;;;;;5037130;28;20523;-68
2022/01/12 05:22:28;;;;;;;20.83;13.73;;;-2.70;98.00;;;;;;5037437;28;20040;-68
2022/01/12 05:24:53;;;;;;;20.67;12.65;;;-2.70;98.00;;;;;;5037553;28;20108;-69
2022/01/12 05:27:19;;;;;;;20.52;13.00;;;-2.70;98.00;;;;;;5037237;28;20025;-69
2022/01/12 05:29:45;;;;;;;21.67;13.48;;;-2.70;98.00;;;;;;5037687;28;20105;-69
2022/01/12 05:32:10;;;;;;;18.92;12.98;;;-2.70;98.00;;;;;;5034107;28;20036;-68
2022/01/12 05:34:38;;;;;;;20.23;12.75;;;-2.80;98.00;;;;;;5036898;28;20049;-69
2022/01/12 05:37:04;;;;;;;21.38;13.95;;;-2.80;98.00;;;;;;5036816;28;20096;-69
2022/01/12 05:39:29;;;;;;;23.80;14.32;;;-2.90;98.00;;;;;;5037010;28;20033;-70
2022/01/12 05:41:55;;;;;;;21.90;14.30;;;-2.90;98.00;;;;;;5035573;28;20068;-69
2022/01/12 05:44:22;;;;;;;21.60;13.68;;;-3.00;98.00;;;;;;5037176;28;20113;-69
2022/01/12 05:46:48;;;;;;;23.63;14.50;;;-3.00;98.00;;;;;;5036834;28;20025;-68
2022/01/12 05:52:03;;;;;;;24.42;14.77;;;-3.20;98.00;;;;;;5036818;28;20442;-68
2022/01/12 05:54:28;;;;;;;23.77;15.13;;;-3.20;98.00;;;;;;5032380;28;20112;-68
2022/01/12 05:56:54;;;;;;;24.10;14.80;;;-3.30;98.00;;;;;;5029762;28;20087;-68
2022/01/12 05:59:21;;;;;;;24.27;14.32;;;-3.40;98.00;;;;;;5033578;28;20021;-69
2022/01/12 06:01:47;;;;;;;21.58;14.40;;;-3.60;98.00;;;;;;5034340;28;20040;-69
2022/01/12 06:04:13;;;;;;;25.50;16.25;;;-3.60;98.00;;;;;;5035475;28;20022;-69
2022/01/12 06:06:38;;;;;;;25.00;16.55;;;-3.60;98.00;;;;;;5035898;28;20025;-69
2022/01/12 06:09:04;;;;;;;30.38;17.05;;;-3.60;98.00;;;;;;5033823;28;20103;-69
2022/01/12 06:11:29;;;;;;;30.13;18.25;;;-3.60;98.00;;;;;;5019618;28;20083;-70
2022/01/12 06:13:59;;;;;;;26.90;16.35;;;-3.60;98.00;;;;;;5037118;28;20029;-69
2022/01/12 06:16:25;;;;;;;24.67;15.43;;;-3.70;98.00;;;;;;5037093;28;20017;-68
2022/01/12 06:18:50;;;;;;;26.23;15.88;;;-3.70;98.00;;;;;;5035321;28;20037;-69
2022/01/12 06:21:16;;;;;;;23.33;15.02;;;-3.70;98.00;;;;;;5036099;28;20034;-69
2022/01/12 06:23:42;;;;;;;25.70;15.63;;;-3.70;98.00;;;;;;5037119;28;20018;-69
2022/01/12 06:26:07;;;;;;;27.73;17.10;;;-3.70;98.00;;;;;;5036993;28;20022;-69
2022/01/12 06:31:11;;;;;;;28.42;17.67;;;-3.80;98.00;;;;;;5016762;28;20309;-70
2022/01/12 06:33:49;;;;;;;28.88;18.08;;;-3.80;98.00;;;;;;5035468;28;20036;-69
2022/01/12 06:36:19;;;;;;;28.88;18.77;;;-3.90;98.00;;;;;;5036723;28;20032;-69
2022/01/12 06:38:45;;;;;;;25.80;16.10;;;-4.00;98.00;;;;;;5016911;28;20032;-69
2022/01/12 06:41:12;;;;;;;28.75;17.98;;;-4.00;98.00;;;;;;5016835;28;20100;-69
2022/01/12 06:43:38;;;;;;;29.77;17.63;;;-4.00;98.00;;;;;;5036059;28;20382;-69
2022/01/12 06:46:04;;;;;;;27.13;17.65;;;-4.00;98.00;;;;;;5036682;28;20025;-69
2022/01/12 06:48:31;;;;;;;27.33;17.50;;;-4.10;98.00;;;;;;5034953;28;20021;-69
2022/01/12 06:50:57;;;;;;;29.17;17.63;;;-4.20;98.00;;;;;;5036508;28;20088;-70
2022/01/12 06:53:22;;;;;;;33.30;18.92;;;-4.30;98.00;;;;;;5036010;28;20034;-69
2022/01/12 06:55:48;;;;;;;31.35;18.13;;;-4.40;98.00;;;;;;5036210;28;20030;-69
2022/01/12 06:58:14;;;;;;;32.45;20.63;;;-4.40;98.00;;;;;;5036230;28;20036;-69
2022/01/12 07:00:40;;;;;;;28.15;18.13;;;-4.50;98.00;;;;;;5036294;28;20059;-69
2022/01/12 07:03:05;;;;;;;33.38;19.27;;;-4.50;98.00;;;;;;5034145;28;20022;-69
2022/01/12 07:05:31;;;;;;;33.65;20.73;;;-4.50;98.00;;;;;;5018784;28;20025;-69
2022/01/12 07:08:00;;;;;;;31.67;19.75;;;-4.40;98.00;;;;;;5035876;28;20097;-69
2022/01/12 07:10:25;;;;;;;29.50;19.13;;;-4.40;98.00;;;;;;5036355;28;20077;-69
2022/01/12 07:12:51;;;;;;;31.40;18.65;;;-4.40;98.00;;;;;;5035614;28;20083;-69
2022/01/12 07:15:17;;;;;;;29.98;19.25;;;-4.50;98.00;;;;;;5035789;28;20025;-69
2022/01/12 07:17:43;;;;;;;34.92;20.30;;;-4.50;98.00;;;;;;5035076;28;20021;-69
2022/01/12 07:20:09;;;;;;;34.75;21.83;;;-4.50;98.00;;;;;;5036004;28;20022;-69
2022/01/12 07:22:35;;;;;;;34.75;21.77;;;-4.50;98.00;;;;;;5036035;28;20128;-69
2022/01/12 07:25:01;;;;;;;33.55;19.48;;;-4.60;98.00;;;;;;5035650;28;20481;-68
2022/01/12 07:27:26;;;;;;;29.92;18.90;;;-4.60;98.00;;;;;;5035351;28;20091;-69
2022/01/12 07:29:52;;;;;;;32.05;19.73;;;-4.60;98.00;;;;;;5035729;28;20443;-70
2022/01/12 07:32:18;;;;;;;36.88;22.35;;;-4.80;98.00;;;;;;5034085;28;20029;-69
2022/01/12 07:34:43;;;;;;;36.63;22.75;;;-4.70;98.00;;;;;;5035686;28;20022;-69
2022/01/12 07:37:10;;;;;;;34.65;20.80;;;-4.60;98.00;;;;;;5035480;28;20045;-69
2022/01/12 07:39:38;;;;;;;34.50;21.15;;;-4.50;98.00;;;;;;5035807;28;20025;-69
2022/01/12 07:42:05;;;;;;;33.92;21.92;;;-4.50;98.00;;;;;;5035496;28;20090;-69
2022/01/12 07:44:30;;;;;;;36.45;22.05;;;-4.60;98.00;;;;;;5035173;28;20375;-69
2022/01/12 07:46:56;;;;;;;37.95;23.25;;;-4.60;98.00;;;;;;5035799;28;20105;-69
2022/01/12 07:49:22;;;;;;;38.33;22.13;;;-4.60;98.00;;;;;;5034565;28;20341;-69
2022/01/12 07:51:48;;;;;;;36.50;21.17;;;-4.60;98.00;;;;;;5035672;28;20026;-69
2022/01/12 07:54:13;;;;;;;32.38;20.45;;;-4.60;98.00;;;;;;5035400;28;20037;-69
2022/01/12 07:56:39;;;;;;;34.28;20.92;;;-4.60;98.00;;;;;;5035445;28;20021;-69
2022/01/12 07:59:05;;;;;;;32.85;19.13;;;-4.60;98.00;;;;;;5035061;28;20033;-69
2022/01/12 08:01:31;;;;;;;31.13;18.55;;;-4.50;98.00;;;;;;5034002;28;20030;-69
2022/01/12 08:03:57;;;;;;;32.33;19.60;;;-4.40;98.00;;;;;;5034624;28;20024;-69
2022/01/12 08:06:22;;;;;;;30.73;19.35;;;-4.30;98.00;;;;;;5035466;28;20288;-70
2022/01/12 08:08:48;;;;;;;33.90;19.75;;;-4.40;98.00;;;;;;5035469;28;20029;-69
2022/01/12 08:11:14;;;;;;;30.80;18.83;;;-4.40;98.00;;;;;;5034273;28;20476;-69
2022/01/12 08:13:42;;;;;;;29.00;18.95;;;-4.50;98.00;;;;;;5033966;28;20108;-70
2022/01/12 08:16:08;;;;;;;31.13;18.52;;;-4.50;98.00;;;;;;5035372;28;20108;-70
2022/01/12 08:18:34;;;;;;;28.63;18.50;;;-4.60;98.00;;;;;;5034389;28;20025;-69
2022/01/12 08:21:01;;;;;;;29.05;18.38;;;-4.50;98.00;;;;;;5034763;28;20418;-69
2022/01/12 08:23:26;;;;;;;31.27;19.65;;;-4.50;98.00;;;;;;5035408;28;20046;-69
2022/01/12 08:25:55;;;;;;;31.02;19.98;;;-4.50;98.00;;;;;;5035059;28;20021;-70
2022/01/12 08:28:21;;;;;;;31.08;19.33;;;-4.40;98.00;;;;;;5035638;28;20108;-69
2022/01/12 08:30:46;;;;;;;30.05;19.67;;;-4.30;98.00;;;;;;5035354;28;20100;-69
2022/01/12 08:33:12;;;;;;;32.53;20.10;;;-4.20;98.00;;;;;;5034183;28;20022;-69
2022/01/12 08:35:38;;;;;;;30.60;19.55;;;-4.10;98.00;;;;;;5030610;28;20030;-69
2022/01/12 08:38:04;;;;;;;33.38;20.85;;;-4.00;98.00;;;;;;5030602;28;20025;-70
2022/01/12 08:40:30;;;;;;;30.20;19.00;;;-3.70;98.00;;;;;;5035373;28;20028;-69
2022/01/12 08:42:56;;;;;;;31.70;18.92;;;-3.40;98.00;;;;;;5034890;28;20029;-68
2022/01/12 08:45:22;;;;;;;29.55;19.35;;;-3.20;98.00;;;;;;5037457;28;20079;-68
2022/01/12 08:47:48;;;;;;;33.35;20.50;;;-3.10;98.00;;;;;;5036462;28;20021;-68
2022/01/12 08:50:15;;;;;;;31.25;20.33;;;-3.10;98.00;;;;;;5037837;28;20020;-68
2022/01/12 08:52:46;;;;;;;26.60;18.85;;;-3.00;98.00;;;;;;5036661;28;20033;-68
2022/01/12 08:55:17;;;;;;;26.40;18.33;;;-2.70;98.00;;;;;;5038302;28;20018;-70
2022/01/12 08:57:45;;;;;;;27.55;19.58;;;-2.30;98.00;;;;;;5038537;28;20072;-70
2022/01/12 09:00:12;;;;;;;26.13;17.33;;;-2.20;98.00;;;;;;5038349;28;20026;-70
2022/01/12 09:02:38;;;;;;;39.38;22.58;;;-2.30;98.00;;;;;;5037045;28;20030;-70
2022/01/12 09:05:05;;;;;;;28.02;17.70;;;-2.40;98.00;;;;;;5037972;28;20025;-69
2022/01/12 09:07:32;;;;;;;24.17;14.52;;;-2.20;98.00;;;;;;5038262;28;20029;-70
2022/01/12 09:09:57;;;;;;;20.73;13.15;;;-1.10;98.00;;;;;;5020712;28;20021;-69
2022/01/12 09:12:23;;;;;;;20.75;12.95;;;-0.30;98.00;;;;;;5038542;28;20041;-69
2022/01/12 09:14:50;;;;;;;19.63;13.02;;;0.10;96.60;;;;;;5037958;28;20383;-69
2022/01/12 09:17:19;;;;;;;18.33;11.60;;;0.90;94.60;;;;;;5037175;28;20531;-69
2022/01/12 09:19:46;;;;;;;16.73;11.13;;;2.10;90.90;;;;;;5038175;28;20108;-70
2022/01/12 09:22:12;;;;;;;14.20;9.85;;;2.50;86.70;;;;;;5037816;28;20037;-69
2022/01/12 09:24:38;;;;;;;15.30;10.73;;;3.30;85.60;;;;;;5038064;28;20109;-70
2022/01/12 09:27:04;;;;;;;15.95;10.95;;;3.70;82.10;;;;;;5038217;28;20060;-70
2022/01/12 09:29:29;;;;;;;13.98;10.38;;;3.00;80.30;;;;;;5037082;28;20025;-69
2022/01/12 09:31:55;;;;;;;15.98;10.73;;;2.90;82.10;;;;;;5035363;28;20029;-69
2022/01/12 09:34:21;;;;;;;17.85;12.07;;;2.90;81.90;;;;;;5036468;28;20451;-69
2022/01/12 09:36:46;;;;;;;16.58;11.23;;;2.70;82.20;;;;;;5037820;28;20099;-69
2022/01/12 09:39:13;;;;;;;14.43;10.75;;;3.40;83.10;;;;;;5037880;28;20021;-69
2022/01/12 09:41:38;;;;;;;13.73;9.63;;;3.60;80.40;;;;;;5037685;28;20039;-69
2022/01/12 09:44:05;;;;;;;13.55;9.85;;;3.80;79.90;;;;;;5037708;28;20025;-70
2022/01/12 09:46:31;;;;;;;19.25;11.57;;;4.20;78.30;;;;;;5037211;28;20017;-69
2022/01/12 09:49:00;;;;;;;18.50;10.90;;;4.50;76.90;;;;;;5036303;28;20029;-68
2022/01/12 09:51:26;;;;;;;13.68;9.32;;;4.30;77.40;;;;;;5037221;28;20040;-69
2022/01/12 09:53:52;;;;;;;13.52;9.68;;;4.60;76.60;;;;;;5037184;28;20034;-71
2022/01/12 09:56:27;;;;;;;14.45;9.75;;;4.60;76.30;;;;;;5037044;28;20036;-69
2022/01/12 09:58:56;;;;;;;13.07;9.52;;;4.60;76.70;;;;;;5036885;28;20032;-69
2022/01/12 10:01:30;;;;;;;16.73;11.63;;;4.20;76.40;;;;;;5037031;28;20053;-69
2022/01/12 10:04:28;;;;;;;16.23;10.55;;;3.70;78.20;;;;;;5036011;28;20030;-68
2022/01/12 10:07:02;;;;;;;15.43;10.63;;;3.50;79.10;;;;;;5013793;28;20037;-69
2022/01/12 10:09:38;;;;;;;15.88;11.25;;;3.60;78.50;;;;;;5037064;28;20025;-69
2022/01/12 10:12:10;;;;;;;17.65;10.95;;;3.40;78.50;;;;;;5036993;28;20434;-69
2022/01/12 10:14:50;;;;;;;17.05;11.00;;;2.90;79.80;;;;;;5019654;28;20033;-70
2022/01/12 10:17:30;;;;;;;19.42;12.60;;;2.20;81.80;;;;;;5035801;28;20025;-69
2022/01/12 10:20:18;;;;;;;16.58;10.95;;;2.10;82.60;;;;;;5019401;28;20048;-69
2022/01/12 10:22:57;;;;;;;17.58;11.38;;;2.10;83.30;;;;;;5036368;28;20045;-70
2022/01/12 10:25:28;;;;;;;15.57;11.18;;;2.50;83.40;;;;;;5036725;28;20037;-69
2022/01/12 10:27:54;;;;;;;14.27;9.63;;;2.90;81.10;;;;;;5036647;28;20107;-69
2022/01/12 10:30:32;;;;;;;18.55;10.43;;;3.50;80.00;;;;;;5036174;28;20021;-70
2022/01/12 10:33:02;;;;;;;14.88;10.32;;;3.90;78.00;;;;;;5035323;28;20033;-70
2022/01/12 10:35:30;;;;;;;16.77;10.85;;;4.30;78.00;;;;;;5036351;28;20021;-69
2022/01/12 10:38:14;;;;;;;14.05;9.63;;;4.20;77.30;;;;;;5036663;28;20056;-70
2022/01/12 10:40:54;;;;;;;13.88;9.45;;;4.40;77.40;;;;;;5036682;28;20021;-70
2022/01/12 10:43:39;;;;;;;12.20;8.75;;;4.70;76.60;;;;;;5036381;28;20026;-69
2022/01/12 10:46:07;;;;;;;16.90;10.48;;;4.90;75.80;;;;;;5035196;28;20025;-69
2022/01/12 10:48:46;;;;;;;15.68;11.20;;;5.20;75.90;;;;;;5035102;28;20072;-70
2022/01/12 10:51:20;;;;;;;16.58;10.63;;;5.40;74.30;;;;;;5036334;28;20025;-70
2022/01/12 10:53:51;;;;;;;13.88;10.52;;;5.10;74.50;;;;;;5035421;28;20029;-70
2022/01/12 10:56:22;;;;;;;14.45;10.10;;;5.10;74.30;;;;;;5035291;28;20048;-71
2022/01/12 10:58:49;;;;;;;16.05;10.68;;;5.10;74.40;;;;;;5036248;28;20068;-71
2022/01/12 11:01:21;;;;;;;15.90;10.27;;;5.10;74.70;;;;;;5036145;28;20084;-70
2022/01/12 11:03:47;;;;;;;14.45;10.40;;;5.00;75.00;;;;;;5034699;28;20322;-71
2022/01/12 11:06:14;;;;;;;16.38;10.80;;;5.10;74.60;;;;;;5035773;28;20017;-71
2022/01/12 11:08:41;;;;;;;16.63;10.57;;;5.40;74.40;;;;;;5034967;28;20034;-70
2022/01/12 11:11:07;;;;;;;21.52;11.95;;;5.20;73.20;;;;;;5035731;28;20033;-70
2022/01/12 11:13:34;;;;;;;15.32;10.32;;;5.20;74.30;;;;;;5036265;28;20488;-70
2022/01/12 11:16:00;;;;;;;16.83;11.02;;;5.00;74.40;;;;;;5035739;28;20037;-71
2022/01/12 11:18:32;;;;;;;15.30;10.73;;;5.00;74.80;;;;;;5035040;28;20315;-71
2022/01/12 11:21:13;;;;;;;17.33;11.27;;;4.90;74.60;;;;;;5035140;28;20067;-71
2022/01/12 11:23:41;;;;;;;18.13;12.00;;;4.50;75.70;;;;;;5035303;28;20307;-71
2022/01/12 11:26:28;;;;;;;16.63;11.35;;;4.50;76.30;;;;;;5018394;28;20036;-71
2022/01/12 11:28:55;;;;;;;17.95;12.20;;;4.60;75.10;;;;;;5035308;28;20017;-71
2022/01/12 11:31:26;;;;;;;16.70;12.38;;;4.80;75.60;;;;;;5035382;28;20033;-72
2022/01/12 11:33:55;;;;;;;18.40;13.70;;;4.80;75.90;;;;;;5016822;28;20037;-71
2022/01/12 11:36:44;;;;;;;22.40;14.48;;;4.10;78.60;;;;;;5035794;28;20025;-71
2022/01/12 11:39:14;;;;;;;20.90;14.77;;;3.50;79.90;;;;;;5029160;28;20453;-70
2022/01/12 11:41:47;;;;;;;24.45;14.75;;;3.40;81.30;;;;;;5035572;28;20103;-71
2022/01/12 11:44:20;;;;;;;21.77;14.90;;;3.40;81.40;;;;;;5034535;28;20029;-70
2022/01/12 11:46:51;;;;;;;49.22;29.60;;;3.40;81.60;;;;;;5035712;28;20368;-70
2022/01/12 11:49:32;;;;;;;23.30;14.77;;;3.70;81.20;;;;;;5033444;28;20419;-72
2022/01/12 11:52:00;;;;;;;21.27;14.35;;;3.70;80.90;;;;;;5035154;28;20091;-71
2022/01/12 11:54:36;;;;;;;23.40;15.10;;;3.20;82.10;;;;;;5035457;28;20159;-72
2022/01/12 11:57:11;;;;;;;22.27;14.82;;;3.40;82.30;;;;;;5034348;28;20326;-72
2022/01/12 12:00:01;;;;;;;21.73;15.20;;;3.40;81.90;;;;;;5035556;28;20112;-72
2022/01/12 12:02:36;;;;;;;20.58;13.77;;;3.30;82.70;;;;;;5034517;28;20079;-72
2022/01/12 12:05:17;;;;;;;19.42;12.75;;;4.10;81.20;;;;;;5035271;28;20334;-71
2022/01/12 12:07:52;;;;;;;20.13;13.13;;;4.10;80.30;;;;;;5035079;28;20028;-71
2022/01/12 12:10:25;;;;;;;19.27;13.20;;;4.20;80.40;;;;;;5035438;28;20083;-71
2022/01/12 12:12:53;;;;;;;20.50;14.10;;;4.20;79.40;;;;;;5035145;28;20040;-71
2022/01/12 12:15:19;;;;;;;20.17;13.80;;;3.90;80.10;;;;;;5035244;28;20025;-71
2022/01/12 12:17:45;;;;;;;21.75;15.38;;;4.00;80.40;;;;;;5034116;28;20033;-71
2022/01/12 12:20:14;;;;;;;20.02;13.90;;;3.90;79.60;;;;;;5037615;28;20086;-71
2022/01/12 12:22:42;;;;;;;22.83;13.75;;;3.70;81.30;;;;;;5038726;28;20069;-70
2022/01/12 12:25:11;;;;;;;21.77;14.65;;;3.80;80.90;;;;;;5037164;28;20018;-71
2022/01/12 12:27:44;;;;;;;20.55;14.52;;;4.10;80.80;;;;;;5037429;28;20033;-71
2022/01/12 12:30:16;;;;;;;22.20;14.43;;;4.30;79.30;;;;;;5038807;28;20319;-71
2022/01/12 12:32:47;;;;;;;23.13;15.52;;;4.30;79.70;;;;;;5037553;28;20033;-71
2022/01/12 12:35:20;;;;;;;23.05;15.23;;;4.10;79.80;;;;;;5038138;28;20100;-71
2022/01/12 12:38:01;;;;;;;27.40;17.23;;;3.80;80.10;;;;;;5038235;28;20029;-71
2022/01/12 12:40:42;;;;;;;29.63;17.58;;;3.70;81.00;;;;;;5037018;28;20021;-71
2022/01/12 12:43:08;;;;;;;23.77;15.18;;;3.30;81.70;;;;;;5021015;28;20032;-70
2022/01/12 12:45:48;;;;;;;22.17;15.90;;;3.40;81.70;;;;;;5037856;28;20354;-70
2022/01/12 12:48:16;;;;;;;25.58;15.73;;;3.50;81.30;;;;;;5030334;28;20035;-69
2022/01/12 12:50:44;;;;;;;24.17;16.33;;;3.70;82.00;;;;;;5033912;28;20438;-69
2022/01/12 12:53:11;;;;;;;23.83;15.35;;;3.40;81.20;;;;;;5030964;28;20030;-69
2022/01/12 12:55:44;;;;;;;25.33;15.50;;;3.50;82.50;;;;;;5018421;28;20121;-70
2022/01/12 12:58:10;;;;;;;22.08;14.57;;;3.60;81.70;;;;;;5037334;28;20029;-71
2022/01/12 13:00:38;;;;;;;23.75;15.25;;;3.70;81.60;;;;;;5020927;28;20037;-71
2022/01/12 13:03:05;;;;;;;21.00;15.05;;;4.00;81.60;;;;;;5035162;28;20083;-70
2022/01/12 13:05:34;;;;;;;23.42;16.08;;;3.90;81.10;;;;;;5037020;28;20068;-71
2022/01/12 13:08:00;;;;;;;24.92;16.88;;;3.90;80.40;;;;;;5037504;28;20025;-71
2022/01/12 13:10:31;;;;;;;23.75;16.35;;;3.90;81.10;;;;;;5036325;28;20322;-72
2022/01/12 13:13:03;;;;;;;26.70;18.00;;;3.50;81.80;;;;;;5037755;28;20036;-70
2022/01/12 13:15:40;;;;;;;26.90;18.90;;;3.40;83.20;;;;;;5037620;28;20048;-72
2022/01/12 13:18:07;;;;;;;24.13;16.67;;;3.50;82.50;;;;;;5036227;28;20166;-69
2022/01/12 13:23:24;;;;;;;26.70;17.55;;;3.30;83.70;;;;;;5036821;28;20114;-69
2022/01/12 13:25:54;;;;;;;27.90;18.67;;;3.40;82.80;;;;;;5036682;28;20052;-70
2022/01/12 13:28:20;;;;;;;30.75;21.60;;;3.00;82.60;;;;;;5033548;28;20028;-70
2022/01/12 13:30:57;;;;;;;28.58;18.90;;;2.80;83.40;;;;;;5036777;28;20026;-70
2022/01/12 13:33:33;;;;;;;27.45;16.75;;;2.70;84.50;;;;;;5036378;28;20473;-69
2022/01/12 13:36:14;;;;;;;26.10;16.92;;;2.80;84.80;;;;;;5037521;28;20029;-68
2022/01/12 13:38:42;;;;;;;27.80;17.40;;;3.00;84.40;;;;;;5037471;28;20028;-66
2022/01/12 13:41:13;;;;;;;25.83;17.58;;;3.30;84.30;;;;;;5037473;28;20101;-69
2022/01/12 13:43:42;;;;;;;25.20;16.65;;;3.40;83.70;;;;;;5035709;28;20032;-70
2022/01/12 13:46:14;;;;;;;28.02;17.88;;;3.40;82.90;;;;;;5036807;28;20088;-70
2022/01/12 13:48:53;;;;;;;27.85;16.70;;;3.40;82.10;;;;;;5036039;28;20511;-69
2022/01/12 13:51:26;;;;;;;28.05;16.20;;;3.20;83.00;;;;;;5034690;28;20048;-69
2022/01/12 13:54:03;;;;;;;26.08;16.75;;;2.80;83.10;;;;;;5019836;28;20037;-70
2022/01/12 13:56:41;;;;;;;26.98;16.75;;;2.40;84.20;;;;;;5036658;28;20315;-70